sensor_id;sensor_type;location;lat;lon;timestamp;pressure;altitude;pressure_sealevel;temperature;humidity
73143;BME280;61343;53.694;9.988;2022-07-15T00:00:15;101540.16;;;13.21;76.91
73143;BME280;61343;53.694;9.988;2022-07-15T00:02:40;101546.78;;;13.19;77.26
73143;BME280;61343;53.694;9.988;2022-07-15T00:05:07;101544.69;;;13.21;77.14
73143;BME280;61343;53.694;9.988;2022-07-15T00:07:33;101539.94;;;13.23;76.89
73143;BME280;61343;53.694;9.988;2022-07-15T00:09:59;101540.16;;;13.28;76.82
73143;BME280;61343;53.694;9.988;2022-07-15T00:12:47;101541.00;;;13.22;77.09
73143;BME280;61343;53.694;9.988;2022-07-15T00:15:13;101539.31;;;13.21;77.23
73143;BME280;61343;53.694;9.988;2022-07-15T00:17:40;101542.41;;;13.31;77.10
73143;BME280;61343;53.694;9.988;2022-07-15T00:20:06;101540.16;;;13.28;76.82
73143;BME280;61343;53.694;9.988;2022-07-15T00:22:32;101535.38;;;13.30;76.78
73143;BME280;61343;53.694;9.988;2022-07-15T00:24:58;101539.06;;;13.35;76.86
73143;BME280;61343;53.694;9.988;2022-07-15T00:27:23;101532.47;;;13.31;76.45
73143;BME280;61343;53.694;9.988;2022-07-15T00:29:49;101529.34;;;13.34;76.69
73143;BME280;61343;53.694;9.988;2022-07-15T00:32:16;101535.16;;;13.31;76.63
73143;BME280;61343;53.694;9.988;2022-07-15T00:34:41;101537.63;;;13.33;76.68
73143;BME280;61343;53.694;9.988;2022-07-15T00:37:06;101530.59;;;13.32;76.49
73143;BME280;61343;53.694;9.988;2022-07-15T00:39:31;101531.03;;;13.29;76.96
73143;BME280;61343;53.694;9.988;2022-07-15T00:41:57;101533.94;;;13.27;76.59
73143;BME280;61343;53.694;9.988;2022-07-15T00:44:22;101526.91;;;13.26;76.75
73143;BME280;61343;53.694;9.988;2022-07-15T00:46:47;101536.03;;;13.19;76.96
73143;BME280;61343;53.694;9.988;2022-07-15T00:49:13;101536.44;;;13.22;77.37
73143;BME280;61343;53.694;9.988;2022-07-15T00:51:44;101535.22;;;13.18;77.01
73143;BME280;61343;53.694;9.988;2022-07-15T00:54:14;101531.09;;;13.09;77.45
73143;BME280;61343;53.694;9.988;2022-07-15T00:56:47;101535.41;;;13.17;77.23
73143;BME280;61343;53.694;9.988;2022-07-15T00:59:13;101530.25;;;13.15;77.25
73143;BME280;61343;53.694;9.988;2022-07-15T01:01:40;101539.31;;;13.21;76.90
73143;BME280;61343;53.694;9.988;2022-07-15T01:04:06;101541.59;;;13.17;77.38
73143;BME280;61343;53.694;9.988;2022-07-15T01:06:32;101544.72;;;13.14;77.42
73143;BME280;61343;53.694;9.988;2022-07-15T01:08:58;101537.66;;;13.20;76.93
73143;BME280;61343;53.694;9.988;2022-07-15T01:11:24;101532.91;;;13.28;76.54
73143;BME280;61343;53.694;9.988;2022-07-15T01:13:49;101524.78;;;13.41;75.35
73143;BME280;61343;53.694;9.988;2022-07-15T01:16:15;101527.06;;;13.38;75.41
73143;BME280;61343;53.694;9.988;2022-07-15T01:18:40;101533.69;;;13.35;75.20
73143;BME280;61343;53.694;9.988;2022-07-15T01:21:06;101528.72;;;13.39;74.78
73143;BME280;61343;53.694;9.988;2022-07-15T01:23:31;101529.97;;;13.36;74.80
73143;BME280;61343;53.694;9.988;2022-07-15T01:25:56;101531.41;;;13.39;74.65
73143;BME280;61343;53.694;9.988;2022-07-15T01:28:21;101523.34;;;13.46;74.28
73143;BME280;61343;53.694;9.988;2022-07-15T01:30:47;101523.34;;;13.46;73.93
73143;BME280;61343;53.694;9.988;2022-07-15T01:33:13;101527.69;;;13.40;74.43
73143;BME280;61343;53.694;9.988;2022-07-15T01:35:38;101535.53;;;13.41;73.95
73143;BME280;61343;53.694;9.988;2022-07-15T01:38:04;101532.66;;;13.36;74.18
73143;BME280;61343;53.694;9.988;2022-07-15T01:40:29;101537.63;;;13.33;73.96
73143;BME280;61343;53.694;9.988;2022-07-15T01:42:54;101537.19;;;13.43;73.79
73143;BME280;61343;53.694;9.988;2022-07-15T01:45:20;101535.78;;;13.33;73.85
73143;BME280;61343;53.694;9.988;2022-07-15T01:47:47;101537.41;;;13.34;74.07
73143;BME280;61343;53.694;9.988;2022-07-15T01:50:14;101547.53;;;13.46;73.55
73143;BME280;61343;53.694;9.988;2022-07-15T01:52:39;101548.13;;;13.41;73.67
73143;BME280;61343;53.694;9.988;2022-07-15T01:55:06;101550.41;;;13.37;73.76
73143;BME280;61343;53.694;9.988;2022-07-15T01:57:32;101560.16;;;13.32;74.08
73143;BME280;61343;53.694;9.988;2022-07-15T01:59:57;101561.16;;;13.37;74.37
73143;BME280;61343;53.694;9.988;2022-07-15T02:02:23;101552.91;;;13.46;72.68
73143;BME280;61343;53.694;9.988;2022-07-15T02:04:48;101552.91;;;13.39;73.58
73143;BME280;61343;53.694;9.988;2022-07-15T02:07:14;101560.75;;;13.40;73.54
73143;BME280;61343;53.694;9.988;2022-07-15T02:09:40;101549.81;;;13.35;73.84
73143;BME280;61343;53.694;9.988;2022-07-15T02:12:05;101558.69;;;13.43;73.72
73143;BME280;61343;53.694;9.988;2022-07-15T02:14:31;101555.78;;;13.37;73.87
73143;BME280;61343;53.694;9.988;2022-07-15T02:16:57;101556.44;;;13.33;74.36
73143;BME280;61343;53.694;9.988;2022-07-15T02:19:22;101547.97;;;13.29;74.63
73143;BME280;61343;53.694;9.988;2022-07-15T02:21:47;101550.91;;;13.21;74.91
73143;BME280;61343;53.694;9.988;2022-07-15T02:24:13;101558.97;;;13.21;75.58
73143;BME280;61343;53.694;9.988;2022-07-15T02:26:38;101554.41;;;13.28;75.13
73143;BME280;61343;53.694;9.988;2022-07-15T02:29:04;101565.38;;;13.14;76.00
73143;BME280;61343;53.694;9.988;2022-07-15T02:31:29;101553.41;;;13.16;76.00
73143;BME280;61343;53.694;9.988;2022-07-15T02:33:55;101562.06;;;13.18;76.48
73143;BME280;61343;53.694;9.988;2022-07-15T02:36:20;101558.34;;;13.19;76.17
73143;BME280;61343;53.694;9.988;2022-07-15T02:38:45;101554.84;;;13.19;76.27
73143;BME280;61343;53.694;9.988;2022-07-15T02:41:11;101559.63;;;13.10;77.19
73143;BME280;61343;53.694;9.988;2022-07-15T02:43:39;101551.31;;;13.18;76.51
73143;BME280;61343;53.694;9.988;2022-07-15T02:46:07;101553.41;;;13.10;76.96
73143;BME280;61343;53.694;9.988;2022-07-15T02:48:32;101549.25;;;13.14;77.06
73143;BME280;61343;53.694;9.988;2022-07-15T02:50:57;101548.44;;;13.13;77.16
73143;BME280;61343;53.694;9.988;2022-07-15T02:53:22;101548.22;;;13.08;77.39
73143;BME280;61343;53.694;9.988;2022-07-15T02:55:53;101555.44;;;13.14;77.28
73143;BME280;61343;53.694;9.988;2022-07-15T02:58:19;101548.44;;;13.13;77.36
73143;BME280;61343;53.694;9.988;2022-07-15T03:00:45;101557.31;;;13.14;77.61
73143;BME280;61343;53.694;9.988;2022-07-15T03:03:10;101552.56;;;13.16;77.20
73143;BME280;61343;53.694;9.988;2022-07-15T03:05:35;101562.50;;;13.15;77.93
73143;BME280;61343;53.694;9.988;2022-07-15T03:08:01;101556.91;;;13.04;78.45
73143;BME280;61343;53.694;9.988;2022-07-15T03:10:26;101555.88;;;13.05;78.44
73143;BME280;61343;53.694;9.988;2022-07-15T03:12:52;101562.06;;;13.12;78.21
73143;BME280;61343;53.694;9.988;2022-07-15T03:15:17;101560.00;;;13.07;78.72
73143;BME280;61343;53.694;9.988;2022-07-15T03:17:42;101551.72;;;13.02;78.52
73143;BME280;61343;53.694;9.988;2022-07-15T03:20:09;101567.03;;;13.08;78.96
73143;BME280;61343;53.694;9.988;2022-07-15T03:22:34;101562.31;;;13.10;78.83
73143;BME280;61343;53.694;9.988;2022-07-15T03:25:00;101557.94;;;13.09;78.99
73143;BME280;61343;53.694;9.988;2022-07-15T03:27:25;101562.69;;;13.07;79.42
73143;BME280;61343;53.694;9.988;2022-07-15T03:29:50;101567.44;;;13.18;79.09
73143;BME280;61343;53.694;9.988;2022-07-15T03:32:16;101568.69;;;13.22;78.60
73143;BME280;61343;53.694;9.988;2022-07-15T03:34:44;101570.53;;;13.15;79.04
73143;BME280;61343;53.694;9.988;2022-07-15T03:37:10;101569.47;;;13.29;78.01
73143;BME280;61343;53.694;9.988;2022-07-15T03:39:36;101570.53;;;13.28;78.05
73143;BME280;61343;53.694;9.988;2022-07-15T03:42:02;101581.47;;;13.27;77.48
73143;BME280;61343;53.694;9.988;2022-07-15T03:44:27;101581.88;;;13.30;77.07
73143;BME280;61343;53.694;9.988;2022-07-15T03:46:52;101582.50;;;13.26;76.81
73143;BME280;61343;53.694;9.988;2022-07-15T03:49:18;101586.44;;;13.23;76.30
73143;BME280;61343;53.694;9.988;2022-07-15T03:51:44;101581.03;;;13.30;76.04
73143;BME280;61343;53.694;9.988;2022-07-15T03:54:09;101581.03;;;13.30;76.08
73143;BME280;61343;53.694;9.988;2022-07-15T03:56:34;101574.84;;;13.29;75.57
73143;BME280;61343;53.694;9.988;2022-07-15T03:59:00;101579.38;;;13.35;75.72
73143;BME280;61343;53.694;9.988;2022-07-15T04:01:26;101578.53;;;13.41;75.22
73143;BME280;61343;53.694;9.988;2022-07-15T04:03:52;101588.66;;;13.46;75.17
73143;BME280;61343;53.694;9.988;2022-07-15T04:06:18;101584.72;;;13.49;74.68
73143;BME280;61343;53.694;9.988;2022-07-15T04:08:44;101586.34;;;13.50;73.91
73143;BME280;61343;53.694;9.988;2022-07-15T04:11:10;101592.56;;;13.50;73.82
73143;BME280;61343;53.694;9.988;2022-07-15T04:13:36;101578.50;;;13.55;73.62
73143;BME280;61343;53.694;9.988;2022-07-15T04:16:02;101580.53;;;13.59;73.32
73143;BME280;61343;53.694;9.988;2022-07-15T04:18:27;101574.31;;;13.65;72.87
73143;BME280;61343;53.694;9.988;2022-07-15T04:20:53;101583.81;;;13.61;73.24
73143;BME280;61343;53.694;9.988;2022-07-15T04:23:18;101582.38;;;13.65;73.21
73143;BME280;61343;53.694;9.988;2022-07-15T04:25:44;101591.88;;;13.68;72.76
73143;BME280;61343;53.694;9.988;2022-07-15T04:28:09;101587.53;;;13.67;72.66
73143;BME280;61343;53.694;9.988;2022-07-15T04:30:35;101591.00;;;13.74;72.84
73143;BME280;61343;53.694;9.988;2022-07-15T04:33:00;101586.66;;;13.79;72.24
73143;BME280;61343;53.694;9.988;2022-07-15T04:35:26;101590.34;;;13.85;72.05
73143;BME280;61343;53.694;9.988;2022-07-15T04:37:51;101584.09;;;13.91;71.36
73143;BME280;61343;53.694;9.988;2022-07-15T04:40:17;101588.69;;;13.90;71.33
73143;BME280;61343;53.694;9.988;2022-07-15T04:42:42;101592.38;;;13.96;71.34
73143;BME280;61343;53.694;9.988;2022-07-15T04:45:07;101593.56;;;14.00;71.16
73143;BME280;61343;53.694;9.988;2022-07-15T04:47:33;101589.84;;;14.01;71.01
73143;BME280;61343;53.694;9.988;2022-07-15T04:49:58;101593.13;;;14.03;71.29
73143;BME280;61343;53.694;9.988;2022-07-15T04:52:46;101594.81;;;14.04;71.12
73143;BME280;61343;53.694;9.988;2022-07-15T04:55:12;101602.88;;;14.04;70.98
73143;BME280;61343;53.694;9.988;2022-07-15T04:57:38;101602.59;;;14.12;70.51
73143;BME280;61343;53.694;9.988;2022-07-15T05:00:04;101602.41;;;14.14;70.31
73143;BME280;61343;53.694;9.988;2022-07-15T05:02:30;101607.13;;;14.18;69.79
73143;BME280;61343;53.694;9.988;2022-07-15T05:04:55;101613.19;;;14.07;70.80
73143;BME280;61343;53.694;9.988;2022-07-15T05:07:21;101619.53;;;14.19;69.84
73143;BME280;61343;53.694;9.988;2022-07-15T05:09:46;101605.47;;;14.17;69.57
73143;BME280;61343;53.694;9.988;2022-07-15T05:12:11;101612.31;;;14.20;69.84
73143;BME280;61343;53.694;9.988;2022-07-15T05:14:37;101611.44;;;14.26;67.91
73143;BME280;61343;53.694;9.988;2022-07-15T05:17:05;101614.50;;;14.36;67.50
73143;BME280;61343;53.694;9.988;2022-07-15T05:19:32;101623.41;;;14.36;67.59
73143;BME280;61343;53.694;9.988;2022-07-15T05:21:57;101623.22;;;14.31;68.08
73143;BME280;61343;53.694;9.988;2022-07-15T05:24:22;101630.88;;;14.34;68.84
73143;BME280;61343;53.694;9.988;2022-07-15T05:26:47;101629.38;;;14.32;68.95
73143;BME280;61343;53.694;9.988;2022-07-15T05:29:13;101634.16;;;14.36;69.08
73143;BME280;61343;53.694;9.988;2022-07-15T05:31:38;101645.09;;;14.41;68.73
73143;BME280;61343;53.694;9.988;2022-07-15T05:34:03;101655.09;;;14.34;69.17
73143;BME280;61343;53.694;9.988;2022-07-15T05:36:30;101656.75;;;14.29;69.35
73143;BME280;61343;53.694;9.988;2022-07-15T05:38:55;101648.09;;;14.20;70.73
73143;BME280;61343;53.694;9.988;2022-07-15T05:41:20;101623.69;;;14.15;71.11
73143;BME280;61343;53.694;9.988;2022-07-15T05:43:46;101643.13;;;14.17;71.15
73143;BME280;61343;53.694;9.988;2022-07-15T05:46:11;101637.75;;;14.17;71.55
73143;BME280;61343;53.694;9.988;2022-07-15T05:48:37;101643.09;;;14.24;71.05
73143;BME280;61343;53.694;9.988;2022-07-15T05:51:04;101649.75;;;14.21;70.82
73143;BME280;61343;53.694;9.988;2022-07-15T05:53:30;101660.50;;;14.21;71.17
73143;BME280;61343;53.694;9.988;2022-07-15T05:55:56;101665.44;;;14.37;71.03
73143;BME280;61343;53.694;9.988;2022-07-15T05:58:22;101651.88;;;14.50;69.52
73143;BME280;61343;53.694;9.988;2022-07-15T06:00:50;101658.06;;;14.58;68.31
73143;BME280;61343;53.694;9.988;2022-07-15T06:03:15;101657.34;;;14.69;69.00
73143;BME280;61343;53.694;9.988;2022-07-15T06:05:40;101669.34;;;14.73;68.12
73143;BME280;61343;53.694;9.988;2022-07-15T06:08:06;101665.94;;;14.84;67.82
73143;BME280;61343;53.694;9.988;2022-07-15T06:10:32;101673.06;;;14.72;68.73
73143;BME280;61343;53.694;9.988;2022-07-15T06:12:57;101677.66;;;14.65;69.10
73143;BME280;61343;53.694;9.988;2022-07-15T06:15:23;101676.97;;;14.44;70.78
73143;BME280;61343;53.694;9.988;2022-07-15T06:17:48;101689.06;;;14.22;72.02
73143;BME280;61343;53.694;9.988;2022-07-15T06:20:14;101698.63;;;14.12;72.01
73143;BME280;61343;53.694;9.988;2022-07-15T06:22:40;101689.94;;;14.10;73.26
73143;BME280;61343;53.694;9.988;2022-07-15T06:25:05;101688.91;;;14.11;73.53
73143;BME280;61343;53.694;9.988;2022-07-15T06:27:31;101699.44;;;14.19;72.95
73143;BME280;61343;53.694;9.988;2022-07-15T06:29:57;101693.44;;;14.17;72.46
73143;BME280;61343;53.694;9.988;2022-07-15T06:32:23;101696.34;;;14.15;72.81
73143;BME280;61343;53.694;9.988;2022-07-15T06:34:48;101700.66;;;14.23;72.57
73143;BME280;61343;53.694;9.988;2022-07-15T06:37:14;101692.94;;;14.39;71.80
73143;BME280;61343;53.694;9.988;2022-07-15T06:39:39;101691.81;;;14.53;71.43
73143;BME280;61343;53.694;9.988;2022-07-15T06:42:04;101692.28;;;14.82;69.92
73143;BME280;61343;53.694;9.988;2022-07-15T06:44:31;101689.63;;;15.00;69.00
73143;BME280;61343;53.694;9.988;2022-07-15T06:46:56;101701.47;;;14.99;67.81
73143;BME280;61343;53.694;9.988;2022-07-15T06:49:22;101699.34;;;15.01;68.66
73143;BME280;61343;53.694;9.988;2022-07-15T06:51:47;101683.97;;;15.08;70.73
73143;BME280;61343;53.694;9.988;2022-07-15T06:54:13;101702.28;;;15.24;69.29
73143;BME280;61343;53.694;9.988;2022-07-15T06:56:39;101696.16;;;15.35;65.91
73143;BME280;61343;53.694;9.988;2022-07-15T06:59:04;101705.75;;;15.31;66.92
73143;BME280;61343;53.694;9.988;2022-07-15T07:01:29;101704.53;;;15.27;68.07
73143;BME280;61343;53.694;9.988;2022-07-15T07:03:55;101709.97;;;15.21;66.52
73143;BME280;61343;53.694;9.988;2022-07-15T07:06:20;101699.63;;;15.18;66.84
73143;BME280;61343;53.694;9.988;2022-07-15T07:08:46;101695.94;;;15.12;65.82
73143;BME280;61343;53.694;9.988;2022-07-15T07:11:13;101700.16;;;15.08;64.69
73143;BME280;61343;53.694;9.988;2022-07-15T07:13:39;101696.63;;;15.07;64.70
73143;BME280;61343;53.694;9.988;2022-07-15T07:16:04;101699.41;;;15.19;63.95
73143;BME280;61343;53.694;9.988;2022-07-15T07:18:30;101696.81;;;15.06;63.93
73143;BME280;61343;53.694;9.988;2022-07-15T07:20:55;101693.78;;;15.21;64.13
73143;BME280;61343;53.694;9.988;2022-07-15T07:23:21;101691.69;;;15.29;63.04
73143;BME280;61343;53.694;9.988;2022-07-15T07:25:48;101701.88;;;15.45;63.69
73143;BME280;61343;53.694;9.988;2022-07-15T07:28:13;101697.75;;;15.68;64.31
73143;BME280;61343;53.694;9.988;2022-07-15T07:30:39;101693.34;;;15.73;60.73
73143;BME280;61343;53.694;9.988;2022-07-15T07:33:04;101698.72;;;15.73;60.76
73143;BME280;61343;53.694;9.988;2022-07-15T07:35:30;101695.34;;;15.78;61.56
73143;BME280;61343;53.694;9.988;2022-07-15T07:37:55;101702.84;;;15.76;61.12
73143;BME280;61343;53.694;9.988;2022-07-15T07:40:20;101701.50;;;15.85;61.85
73143;BME280;61343;53.694;9.988;2022-07-15T07:42:46;101698.94;;;15.90;60.93
73143;BME280;61343;53.694;9.988;2022-07-15T07:45:11;101700.59;;;15.91;61.78
73143;BME280;61343;53.694;9.988;2022-07-15T07:47:37;101712.13;;;15.98;61.26
73143;BME280;61343;53.694;9.988;2022-07-15T07:50:06;101704.19;;;16.03;60.34
73143;BME280;61343;53.694;9.988;2022-07-15T07:52:32;101704.03;;;15.98;61.63
73143;BME280;61343;53.694;9.988;2022-07-15T07:54:57;101719.09;;;15.69;62.29
73143;BME280;61343;53.694;9.988;2022-07-15T07:57:23;101724.69;;;15.49;63.49
73143;BME280;61343;53.694;9.988;2022-07-15T07:59:48;101719.72;;;15.46;63.65
73143;BME280;61343;53.694;9.988;2022-07-15T08:02:14;101721.09;;;15.31;63.38
73143;BME280;61343;53.694;9.988;2022-07-15T08:04:39;101715.75;;;15.24;64.15
73143;BME280;61343;53.694;9.988;2022-07-15T08:07:06;101724.06;;;15.23;64.28
73143;BME280;61343;53.694;9.988;2022-07-15T08:09:31;101721.13;;;15.24;64.96
73143;BME280;61343;53.694;9.988;2022-07-15T08:11:56;101720.66;;;15.34;65.62
73143;BME280;61343;53.694;9.988;2022-07-15T08:14:22;101718.94;;;15.39;65.56
73143;BME280;61343;53.694;9.988;2022-07-15T08:16:47;101731.38;;;15.40;64.85
73143;BME280;61343;53.694;9.988;2022-07-15T08:19:12;101722.75;;;15.32;65.28
73143;BME280;61343;53.694;9.988;2022-07-15T08:21:42;101713.81;;;15.31;65.78
73143;BME280;61343;53.694;9.988;2022-07-15T08:24:07;101723.50;;;15.39;65.77
73143;BME280;61343;53.694;9.988;2022-07-15T08:26:33;101719.28;;;15.49;65.68
73143;BME280;61343;53.694;9.988;2022-07-15T08:28:58;101725.00;;;15.59;66.05
73143;BME280;61343;53.694;9.988;2022-07-15T08:31:23;101720.44;;;15.60;65.46
73143;BME280;61343;53.694;9.988;2022-07-15T08:33:49;101710.03;;;15.63;65.39
73143;BME280;61343;53.694;9.988;2022-07-15T08:36:14;101719.91;;;15.70;64.67
73143;BME280;61343;53.694;9.988;2022-07-15T08:38:40;101720.53;;;15.90;62.54
73143;BME280;61343;53.694;9.988;2022-07-15T08:41:05;101711.75;;;15.94;63.47
73143;BME280;61343;53.694;9.988;2022-07-15T08:43:31;101715.56;;;16.23;62.85
73143;BME280;61343;53.694;9.988;2022-07-15T08:45:57;101727.09;;;16.30;62.21
73143;BME280;61343;53.694;9.988;2022-07-15T08:48:27;101726.81;;;16.20;63.40
73143;BME280;61343;53.694;9.988;2022-07-15T08:50:55;101733.56;;;16.11;63.95
73143;BME280;61343;53.694;9.988;2022-07-15T08:53:20;101731.81;;;15.80;66.94
73143;BME280;61343;53.694;9.988;2022-07-15T08:55:47;101745.84;;;15.46;68.79
73143;BME280;61343;53.694;9.988;2022-07-15T08:58:12;101751.56;;;15.00;71.74
73143;BME280;61343;53.694;9.988;2022-07-15T09:00:37;101747.97;;;14.88;73.95
73143;BME280;61343;53.694;9.988;2022-07-15T09:03:03;101743.44;;;14.82;72.42
73143;BME280;61343;53.694;9.988;2022-07-15T09:05:32;101744.56;;;14.99;73.00
73143;BME280;61343;53.694;9.988;2022-07-15T09:08:12;101735.25;;;14.95;71.10
73143;BME280;61343;53.694;9.988;2022-07-15T09:10:58;101730.63;;;15.08;69.92
73143;BME280;61343;53.694;9.988;2022-07-15T09:13:34;101725.69;;;15.24;69.55
73143;BME280;61343;53.694;9.988;2022-07-15T09:16:10;101724.81;;;15.30;67.22
73143;BME280;61343;53.694;9.988;2022-07-15T09:18:38;101726.56;;;15.42;66.80
73143;BME280;61343;53.694;9.988;2022-07-15T09:21:15;101713.75;;;15.62;67.33
73143;BME280;61343;53.694;9.988;2022-07-15T09:23:40;101716.03;;;15.84;68.15
73143;BME280;61343;53.694;9.988;2022-07-15T09:28:49;101715.81;;;16.51;62.99
73143;BME280;61343;53.694;9.988;2022-07-15T09:31:37;101709.19;;;16.65;62.32
73143;BME280;61343;53.694;9.988;2022-07-15T09:34:22;101718.88;;;16.85;61.80
73143;BME280;61343;53.694;9.988;2022-07-15T09:36:50;101708.59;;;17.16;63.42
73143;BME280;61343;53.694;9.988;2022-07-15T09:39:20;101716.91;;;17.56;61.66
73143;BME280;61343;53.694;9.988;2022-07-15T09:41:46;101709.59;;;17.68;60.82
73143;BME280;61343;53.694;9.988;2022-07-15T09:44:13;101719.44;;;17.98;59.67
73143;BME280;61343;53.694;9.988;2022-07-15T09:46:52;101707.22;;;17.60;59.31
73143;BME280;61343;53.694;9.988;2022-07-15T09:54:25;101708.13;;;18.01;57.45
73143;BME280;61343;53.694;9.988;2022-07-15T09:56:51;101706.78;;;18.15;56.22
73143;BME280;61343;53.694;9.988;2022-07-15T09:59:17;101708.94;;;18.01;55.75
73143;BME280;61343;53.694;9.988;2022-07-15T10:01:44;101709.22;;;17.76;55.96
73143;BME280;61343;53.694;9.988;2022-07-15T10:04:10;101724.84;;;17.51;56.61
73143;BME280;61343;53.694;9.988;2022-07-15T10:06:37;101716.25;;;17.31;58.08
73143;BME280;61343;53.694;9.988;2022-07-15T10:09:05;101730.81;;;17.18;59.60
73143;BME280;61343;53.694;9.988;2022-07-15T10:11:33;101726.59;;;17.11;59.60
73143;BME280;61343;53.694;9.988;2022-07-15T10:16:55;101731.53;;;17.14;59.28
73143;BME280;61343;53.694;9.988;2022-07-15T10:22:55;101718.50;;;17.80;56.90
73143;BME280;61343;53.694;9.988;2022-07-15T10:25:41;101713.88;;;18.44;54.81
73143;BME280;61343;53.694;9.988;2022-07-15T10:30:35;101706.88;;;18.20;54.76
73143;BME280;61343;53.694;9.988;2022-07-15T10:33:17;101713.19;;;17.97;54.86
73143;BME280;61343;53.694;9.988;2022-07-15T10:38:32;101717.16;;;18.18;54.08
73143;BME280;61343;53.694;9.988;2022-07-15T10:43:52;101700.25;;;18.39;53.92
73143;BME280;61343;53.694;9.988;2022-07-15T10:46:21;101697.06;;;18.30;53.86
73143;BME280;61343;53.694;9.988;2022-07-15T10:48:52;101702.81;;;18.06;53.76
73143;BME280;61343;53.694;9.988;2022-07-15T10:56:47;101710.38;;;17.80;55.50
73143;BME280;61343;53.694;9.988;2022-07-15T10:59:14;101700.88;;;17.66;56.50
73143;BME280;61343;53.694;9.988;2022-07-15T11:01:44;101716.75;;;17.63;56.26
73143;BME280;61343;53.694;9.988;2022-07-15T11:04:15;101712.06;;;17.58;55.92
73143;BME280;61343;53.694;9.988;2022-07-15T11:15:01;101705.09;;;18.65;56.00
73143;BME280;61343;53.694;9.988;2022-07-15T11:20:09;101695.09;;;18.82;54.48
73143;BME280;61343;53.694;9.988;2022-07-15T11:22:39;101696.06;;;18.76;54.37
73143;BME280;61343;53.694;9.988;2022-07-15T11:25:06;101691.56;;;18.99;56.61
73143;BME280;61343;53.694;9.988;2022-07-15T11:27:32;101694.78;;;19.12;54.75
73143;BME280;61343;53.694;9.988;2022-07-15T11:30:00;101682.47;;;19.21;53.69
73143;BME280;61343;53.694;9.988;2022-07-15T11:32:31;101687.38;;;19.24;53.79
73143;BME280;61343;53.694;9.988;2022-07-15T11:34:59;101686.06;;;19.10;54.44
73143;BME280;61343;53.694;9.988;2022-07-15T11:40:07;101686.91;;;18.49;55.27
73143;BME280;61343;53.694;9.988;2022-07-15T11:42:33;101686.22;;;18.70;55.53
73143;BME280;61343;53.694;9.988;2022-07-15T11:45:35;101676.53;;;18.46;55.18
73143;BME280;61343;53.694;9.988;2022-07-15T11:48:01;101691.63;;;18.54;54.71
73143;BME280;61343;53.694;9.988;2022-07-15T11:50:26;101682.13;;;18.28;55.78
73143;BME280;61343;53.694;9.988;2022-07-15T11:52:56;101692.44;;;18.14;56.09
73143;BME280;61343;53.694;9.988;2022-07-15T11:55:22;101688.66;;;18.55;55.19
73143;BME280;61343;53.694;9.988;2022-07-15T11:57:49;101684.09;;;18.89;53.85
73143;BME280;61343;53.694;9.988;2022-07-15T12:00:16;101688.38;;;18.85;53.31
73143;BME280;61343;53.694;9.988;2022-07-15T12:02:42;101681.44;;;18.61;52.76
73143;BME280;61343;53.694;9.988;2022-07-15T12:05:08;101689.97;;;18.41;53.91
73143;BME280;61343;53.694;9.988;2022-07-15T12:07:47;101684.97;;;18.33;54.06
73143;BME280;61343;53.694;9.988;2022-07-15T12:10:14;101684.06;;;18.16;55.46
73143;BME280;61343;53.694;9.988;2022-07-15T12:12:53;101687.44;;;17.95;56.42
73143;BME280;61343;53.694;9.988;2022-07-15T12:15:19;101686.38;;;17.84;57.58
73143;BME280;61343;53.694;9.988;2022-07-15T12:17:45;101685.53;;;18.07;56.99
73143;BME280;61343;53.694;9.988;2022-07-15T12:20:11;101679.75;;;18.31;56.95
73143;BME280;61343;53.694;9.988;2022-07-15T12:22:37;101681.34;;;18.72;55.01
73143;BME280;61343;53.694;9.988;2022-07-15T12:25:02;101672.28;;;18.95;54.12
73143;BME280;61343;53.694;9.988;2022-07-15T12:27:37;101663.22;;;19.23;53.87
73143;BME280;61343;53.694;9.988;2022-07-15T12:30:07;101661.94;;;19.85;52.80
73143;BME280;61343;53.694;9.988;2022-07-15T12:32:33;101689.09;;;19.85;51.56
73143;BME280;61343;53.694;9.988;2022-07-15T12:35:00;101693.78;;;19.35;51.09
73143;BME280;61343;53.694;9.988;2022-07-15T12:37:46;101679.31;;;18.79;51.86
73143;BME280;61343;53.694;9.988;2022-07-15T12:40:20;101680.44;;;18.50;52.80
73143;BME280;61343;53.694;9.988;2022-07-15T12:42:48;101680.88;;;18.47;52.56
73143;BME280;61343;53.694;9.988;2022-07-15T12:45:17;101689.75;;;18.71;52.96
73143;BME280;61343;53.694;9.988;2022-07-15T12:50:56;101674.97;;;19.45;52.26
73143;BME280;61343;53.694;9.988;2022-07-15T12:53:24;101684.16;;;19.82;51.50
73143;BME280;61343;53.694;9.988;2022-07-15T12:55:51;101693.88;;;19.57;50.41
73143;BME280;61343;53.694;9.988;2022-07-15T12:58:26;101679.66;;;19.49;50.94
73143;BME280;61343;53.694;9.988;2022-07-15T13:00:52;101692.31;;;19.44;51.36
73143;BME280;61343;53.694;9.988;2022-07-15T13:03:28;101698.72;;;19.21;50.20
73143;BME280;61343;53.694;9.988;2022-07-15T13:05:54;101684.59;;;19.03;50.91
73143;BME280;61343;53.694;9.988;2022-07-15T13:08:23;101689.34;;;18.79;52.26
73143;BME280;61343;53.694;9.988;2022-07-15T13:10:50;101685.88;;;18.67;52.88
73143;BME280;61343;53.694;9.988;2022-07-15T13:13:18;101687.88;;;18.71;53.70
73143;BME280;61343;53.694;9.988;2022-07-15T13:15:46;101695.72;;;18.73;53.57
73143;BME280;61343;53.694;9.988;2022-07-15T13:18:12;101680.16;;;18.97;53.79
73143;BME280;61343;53.694;9.988;2022-07-15T13:20:39;101689.53;;;18.89;52.54
73143;BME280;61343;53.694;9.988;2022-07-15T13:23:05;101689.34;;;18.95;53.05
73143;BME280;61343;53.694;9.988;2022-07-15T13:25:31;101682.88;;;18.97;52.43
73143;BME280;61343;53.694;9.988;2022-07-15T13:27:57;101681.47;;;19.27;51.36
73143;BME280;61343;53.694;9.988;2022-07-15T13:30:24;101688.13;;;19.53;51.36
73143;BME280;61343;53.694;9.988;2022-07-15T13:32:50;101687.47;;;19.46;51.26